Springfield, IL (62723)

4:07 AM CST on December 18, 2014 (GMT -0600)
Southwest Springfield | Change Station
CLOSE
Current Station
Personal Weather Station
Location: Springfield, IL
Elevation: 607 ft
Nearby Weather Stations

Elev 607 ft 39.76 °N, 89.68 °W | Updated 8 seconds ago

Mostly Cloudy
Mostly Cloudy
22.3 °F
Feels Like 22 °F
N
0.0
Wind Variable Wind from SW
Gusts 0.0 mph

Today
High -- | Low -- °F
--% Chance of Precip.
Yesterday
High -- | Low -- °F
Precip. -- in
7:14 AM 4:35 PM
Waning Crescent, 15% visible
Pressure 30.30 in
Visibility 8.0 miles
Clouds Few 10000 ft
Windchill 22 °F
Dew Point 22 °F
Humidity 99%
Rainfall 0.00 in
Snow Depth Not available.
UV 0 out of 12
Pollen .10 out of 12
Air Quality Not available.
Flu Activity Not available.
METAR KSPI 180952Z AUTO 02004KT 8SM FEW100 M06/M08 A3028 RMK AO2 SLP261 T10611078

More Conditions Fewer Conditions

Pressure 30.30 in
Visibility 8.0 miles
Clouds Few 10000 ft
Windchill 22 °F
Dew Point 22 °F
Humidity 99%
Rainfall 0.00 in
Snow Depth Not available.
UV 0 out of 12
Pollen .10 out of 12
Air Quality Not available.
Flu Activity Not available.
METAR KSPI 180952Z AUTO 02004KT 8SM FEW100 M06/M08 A3028 RMK AO2 SLP261 T10611078

More Conditions Fewer Conditions

10-Day Weather Forecast

Almanac

Astronomy

Dec. 18, 2014 Rise Set
Actual Time
Civil Twilight
Nautical Twilight
Astronomical Twilight
Moon
Length of Visible Light
Length of Day
Tomorrow will be .
, % of the Moon is Illuminated

Today's Extremes

State Highs State Lows

Community

WunderPhotos

Upload Photos

1,778,907 photos uploaded!

WunderBlogs® & News

Nearby

Air Quality

  Air Quality AQ Index Pollutant
Not available.

Snow Depth

Station Depth Elevation

Earthquake Activity

City Distance Mag. Time & Date
Minimum magnitude displayed is 2.5.

Coastal Water Temperatures

Place Temperature

Nearby Weather Stations